Matachewan, Canada
Current Conditions -  °F | °C
As of 12:00 AM on Monday 20 Oct 2014 (Local Time) from CYXR Reporting Station
Overcast Overcast  
Wind Chill: 26°   Ceiling: 12000
Heat Index: 32°   Visibility: 9mi
Dew Point: 30°   Wind: 6mph
Humidity: 93%   Direction: 130°SE
Pressure: 29.91"   Gusts: NA
Location:  48°N, 80.65°W
Report Text: CYXR 200400Z AUTO 13005KT 9SM OVC120 M00/M01 A2991 RMK SLP141
Loading
Personal Weather Stations






























Interactive Weather Map
Tropical Storm Tracking
New forecast layout! Learn more

10-Day Weather Forecast

Advertisements
Track Severe Weather on mobile